Oxbow, Canada
Current Conditions -  °F | °C
As of 12:00 AM on Sunday 21 Dec 2014 (Local Time) from CYEN Reporting Station
Clear Clear  
Wind Chill: 10°   Ceiling: Unl
Heat Index: 19°   Visibility: 15mi
Dew Point: 18°   Wind: 7mph
Humidity: 93%   Direction: 210°SSW
Pressure: 29.66"   Gusts: NA
Location:  49.22°N, 102.17°W
Report Text: CYEN 210600Z 21006KT 15SM SKC M07/M08 A2966 RMK SLP080
Loading
Personal Weather Stations






























Interactive Weather Map New forecast layout! Learn more

10-Day Weather Forecast

Advertisements
Track Severe Weather on mobile